sensor_id;sensor_type;location;lat;lon;timestamp;P1;durP1;ratioP1;P2;durP2;ratioP2
66145;SDS011;52948;60.040;30.320;2023-03-24T00:04:18;4.88;;;1.95;;
66145;SDS011;52948;60.040;30.320;2023-03-24T00:09:20;4.43;;;1.95;;
66145;SDS011;52948;60.040;30.320;2023-03-24T00:14:23;6.65;;;1.50;;
66145;SDS011;52948;60.040;30.320;2023-03-24T00:19:26;5.85;;;1.73;;
66145;SDS011;52948;60.040;30.320;2023-03-24T00:24:28;6.03;;;1.98;;
66145;SDS011;52948;60.040;30.320;2023-03-24T00:29:31;6.80;;;2.13;;
66145;SDS011;52948;60.040;30.320;2023-03-24T00:34:34;4.93;;;2.03;;
66145;SDS011;52948;60.040;30.320;2023-03-24T00:39:40;6.82;;;2.33;;
66145;SDS011;52948;60.040;30.320;2023-03-24T00:44:43;4.95;;;2.08;;
66145;SDS011;52948;60.040;30.320;2023-03-24T00:49:45;4.53;;;2.15;;
66145;SDS011;52948;60.040;30.320;2023-03-24T00:54:50;5.22;;;2.05;;
66145;SDS011;52948;60.040;30.320;2023-03-24T00:59:55;3.75;;;1.90;;
66145;SDS011;52948;60.040;30.320;2023-03-24T01:04:58;7.13;;;2.00;;
66145;SDS011;52948;60.040;30.320;2023-03-24T01:10:03;6.45;;;2.17;;
66145;SDS011;52948;60.040;30.320;2023-03-24T01:15:08;6.60;;;1.88;;
66145;SDS011;52948;60.040;30.320;2023-03-24T01:20:14;5.00;;;2.30;;
66145;SDS011;52948;60.040;30.320;2023-03-24T01:25:18;9.43;;;2.67;;
66145;SDS011;52948;60.040;30.320;2023-03-24T01:30:22;5.53;;;2.35;;
66145;SDS011;52948;60.040;30.320;2023-03-24T01:35:26;5.53;;;2.63;;
66145;SDS011;52948;60.040;30.320;2023-03-24T01:40:29;7.07;;;2.10;;
66145;SDS011;52948;60.040;30.320;2023-03-24T01:51:27;6.03;;;2.00;;
66145;SDS011;52948;60.040;30.320;2023-03-24T01:56:37;5.38;;;2.10;;
66145;SDS011;52948;60.040;30.320;2023-03-24T02:01:42;7.03;;;2.20;;
66145;SDS011;52948;60.040;30.320;2023-03-24T02:07:03;7.05;;;2.17;;
66145;SDS011;52948;60.040;30.320;2023-03-24T02:12:11;7.50;;;2.65;;
66145;SDS011;52948;60.040;30.320;2023-03-24T02:39:17;5.97;;;2.92;;
66145;SDS011;52948;60.040;30.320;2023-03-24T02:49:34;5.72;;;2.50;;
66145;SDS011;52948;60.040;30.320;2023-03-24T02:54:48;6.20;;;2.47;;
66145;SDS011;52948;60.040;30.320;2023-03-24T02:59:58;6.05;;;2.42;;
66145;SDS011;52948;60.040;30.320;2023-03-24T03:05:30;4.75;;;2.22;;
66145;SDS011;52948;60.040;30.320;2023-03-24T03:10:46;4.53;;;2.55;;
66145;SDS011;52948;60.040;30.320;2023-03-24T03:15:51;9.23;;;3.78;;
66145;SDS011;52948;60.040;30.320;2023-03-24T03:21:07;9.70;;;4.10;;
66145;SDS011;52948;60.040;30.320;2023-03-24T03:26:13;8.82;;;4.28;;
66145;SDS011;52948;60.040;30.320;2023-03-24T03:31:18;8.57;;;3.95;;
66145;SDS011;52948;60.040;30.320;2023-03-24T03:36:28;9.45;;;4.40;;
66145;SDS011;52948;60.040;30.320;2023-03-24T03:41:34;8.63;;;4.25;;
66145;SDS011;52948;60.040;30.320;2023-03-24T03:46:38;12.02;;;4.55;;
66145;SDS011;52948;60.040;30.320;2023-03-24T03:51:44;6.05;;;3.25;;
66145;SDS011;52948;60.040;30.320;2023-03-24T03:56:47;8.77;;;4.00;;
66145;SDS011;52948;60.040;30.320;2023-03-24T04:02:12;8.50;;;3.75;;
66145;SDS011;52948;60.040;30.320;2023-03-24T04:39:45;11.10;;;5.28;;
66145;SDS011;52948;60.040;30.320;2023-03-24T04:44:51;18.08;;;5.63;;
66145;SDS011;52948;60.040;30.320;2023-03-24T04:50:11;10.02;;;4.53;;
66145;SDS011;52948;60.040;30.320;2023-03-24T04:55:25;6.35;;;3.67;;
66145;SDS011;52948;60.040;30.320;2023-03-24T05:00:34;9.50;;;4.82;;
66145;SDS011;52948;60.040;30.320;2023-03-24T05:05:41;9.07;;;4.22;;
66145;SDS011;52948;60.040;30.320;2023-03-24T05:10:45;9.50;;;6.32;;
66145;SDS011;52948;60.040;30.320;2023-03-24T05:15:47;9.32;;;5.07;;
66145;SDS011;52948;60.040;30.320;2023-03-24T05:21:10;8.15;;;4.72;;
66145;SDS011;52948;60.040;30.320;2023-03-24T05:26:13;11.85;;;4.85;;
66145;SDS011;52948;60.040;30.320;2023-03-24T05:31:33;10.02;;;5.25;;
66145;SDS011;52948;60.040;30.320;2023-03-24T05:36:47;10.35;;;4.90;;
66145;SDS011;52948;60.040;30.320;2023-03-24T05:41:54;12.27;;;4.80;;
66145;SDS011;52948;60.040;30.320;2023-03-24T05:46:56;10.07;;;4.60;;
66145;SDS011;52948;60.040;30.320;2023-03-24T05:51:59;8.23;;;4.53;;
66145;SDS011;52948;60.040;30.320;2023-03-24T05:57:02;12.93;;;5.13;;
66145;SDS011;52948;60.040;30.320;2023-03-24T06:02:10;12.13;;;5.57;;
66145;SDS011;52948;60.040;30.320;2023-03-24T06:07:36;11.52;;;5.47;;
66145;SDS011;52948;60.040;30.320;2023-03-24T06:12:39;9.27;;;5.13;;
66145;SDS011;52948;60.040;30.320;2023-03-24T06:17:43;10.75;;;5.03;;
66145;SDS011;52948;60.040;30.320;2023-03-24T06:22:57;10.35;;;5.75;;
66145;SDS011;52948;60.040;30.320;2023-03-24T06:28:08;8.38;;;5.45;;
66145;SDS011;52948;60.040;30.320;2023-03-24T06:33:14;9.77;;;5.75;;
66145;SDS011;52948;60.040;30.320;2023-03-24T06:38:19;11.02;;;5.60;;
66145;SDS011;52948;60.040;30.320;2023-03-24T06:43:23;11.73;;;5.60;;
66145;SDS011;52948;60.040;30.320;2023-03-24T06:48:26;10.10;;;5.60;;
66145;SDS011;52948;60.040;30.320;2023-03-24T06:53:35;11.25;;;6.55;;
66145;SDS011;52948;60.040;30.320;2023-03-24T06:58:38;11.00;;;5.75;;
66145;SDS011;52948;60.040;30.320;2023-03-24T07:03:50;9.32;;;5.18;;
66145;SDS011;52948;60.040;30.320;2023-03-24T07:08:52;11.75;;;5.55;;
66145;SDS011;52948;60.040;30.320;2023-03-24T07:13:56;8.95;;;5.60;;
66145;SDS011;52948;60.040;30.320;2023-03-24T07:18:59;9.57;;;4.68;;
66145;SDS011;52948;60.040;30.320;2023-03-24T07:24:04;8.80;;;4.97;;
66145;SDS011;52948;60.040;30.320;2023-03-24T07:29:18;12.68;;;5.45;;
66145;SDS011;52948;60.040;30.320;2023-03-24T07:34:36;9.40;;;4.90;;
66145;SDS011;52948;60.040;30.320;2023-03-24T07:39:40;11.57;;;5.20;;
66145;SDS011;52948;60.040;30.320;2023-03-24T07:44:42;14.50;;;6.05;;
66145;SDS011;52948;60.040;30.320;2023-03-24T07:49:47;9.00;;;5.43;;
66145;SDS011;52948;60.040;30.320;2023-03-24T07:54:49;11.73;;;5.55;;
66145;SDS011;52948;60.040;30.320;2023-03-24T08:00:14;10.60;;;5.53;;
66145;SDS011;52948;60.040;30.320;2023-03-24T08:05:49;14.00;;;5.20;;
66145;SDS011;52948;60.040;30.320;2023-03-24T08:10:56;13.85;;;5.80;;
66145;SDS011;52948;60.040;30.320;2023-03-24T08:15:59;11.43;;;6.57;;
66145;SDS011;52948;60.040;30.320;2023-03-24T08:21:01;12.95;;;6.45;;
66145;SDS011;52948;60.040;30.320;2023-03-24T08:26:03;13.85;;;6.47;;
66145;SDS011;52948;60.040;30.320;2023-03-24T08:31:05;13.00;;;5.78;;
66145;SDS011;52948;60.040;30.320;2023-03-24T08:36:08;11.05;;;5.90;;
66145;SDS011;52948;60.040;30.320;2023-03-24T08:41:11;10.30;;;5.75;;
66145;SDS011;52948;60.040;30.320;2023-03-24T08:46:14;10.35;;;6.50;;
66145;SDS011;52948;60.040;30.320;2023-03-24T08:51:17;13.95;;;6.43;;
66145;SDS011;52948;60.040;30.320;2023-03-24T08:56:20;12.65;;;6.20;;
66145;SDS011;52948;60.040;30.320;2023-03-24T09:01:22;11.23;;;6.20;;
66145;SDS011;52948;60.040;30.320;2023-03-24T09:06:25;11.60;;;6.55;;
66145;SDS011;52948;60.040;30.320;2023-03-24T09:11:28;16.65;;;7.22;;
66145;SDS011;52948;60.040;30.320;2023-03-24T09:16:31;14.55;;;7.53;;
66145;SDS011;52948;60.040;30.320;2023-03-24T09:21:33;17.73;;;7.90;;
66145;SDS011;52948;60.040;30.320;2023-03-24T09:26:36;17.17;;;7.80;;
66145;SDS011;52948;60.040;30.320;2023-03-24T09:31:39;16.30;;;7.60;;
66145;SDS011;52948;60.040;30.320;2023-03-24T09:36:41;15.38;;;7.40;;
66145;SDS011;52948;60.040;30.320;2023-03-24T09:41:44;13.45;;;6.63;;
66145;SDS011;52948;60.040;30.320;2023-03-24T09:46:48;10.95;;;5.90;;
66145;SDS011;52948;60.040;30.320;2023-03-24T09:52:02;10.93;;;6.05;;
66145;SDS011;52948;60.040;30.320;2023-03-24T09:57:17;12.00;;;5.75;;
66145;SDS011;52948;60.040;30.320;2023-03-24T10:02:25;12.80;;;6.18;;
66145;SDS011;52948;60.040;30.320;2023-03-24T10:08:13;11.13;;;6.35;;
66145;SDS011;52948;60.040;30.320;2023-03-24T10:13:05;13.38;;;7.60;;
66145;SDS011;52948;60.040;30.320;2023-03-24T10:28:52;14.50;;;7.28;;
66145;SDS011;52948;60.040;30.320;2023-03-24T10:34:01;10.57;;;6.15;;
66145;SDS011;52948;60.040;30.320;2023-03-24T10:39:04;13.32;;;6.85;;
66145;SDS011;52948;60.040;30.320;2023-03-24T10:44:07;11.85;;;6.55;;
66145;SDS011;52948;60.040;30.320;2023-03-24T10:54:23;8.30;;;5.43;;
66145;SDS011;52948;60.040;30.320;2023-03-24T10:59:29;10.50;;;5.43;;
66145;SDS011;52948;60.040;30.320;2023-03-24T11:04:33;8.27;;;5.25;;
66145;SDS011;52948;60.040;30.320;2023-03-24T11:09:40;12.63;;;5.30;;
66145;SDS011;52948;60.040;30.320;2023-03-24T11:14:44;11.70;;;5.68;;
66145;SDS011;52948;60.040;30.320;2023-03-24T11:19:50;13.80;;;5.43;;
66145;SDS011;52948;60.040;30.320;2023-03-24T11:24:54;11.07;;;5.93;;
66145;SDS011;52948;60.040;30.320;2023-03-24T11:29:57;8.68;;;4.60;;
66145;SDS011;52948;60.040;30.320;2023-03-24T11:35:06;9.00;;;4.78;;
66145;SDS011;52948;60.040;30.320;2023-03-24T11:50:37;8.30;;;4.75;;
66145;SDS011;52948;60.040;30.320;2023-03-24T12:11:43;7.07;;;4.07;;
66145;SDS011;52948;60.040;30.320;2023-03-24T12:17:14;6.00;;;3.70;;
66145;SDS011;52948;60.040;30.320;2023-03-24T12:38:37;8.50;;;4.00;;
66145;SDS011;52948;60.040;30.320;2023-03-24T12:54:23;6.88;;;3.63;;
66145;SDS011;52948;60.040;30.320;2023-03-24T13:00:09;5.72;;;3.78;;
66145;SDS011;52948;60.040;30.320;2023-03-24T13:05:13;5.57;;;3.55;;
66145;SDS011;52948;60.040;30.320;2023-03-24T13:10:19;4.65;;;3.13;;
66145;SDS011;52948;60.040;30.320;2023-03-24T13:15:32;5.30;;;3.53;;
66145;SDS011;52948;60.040;30.320;2023-03-24T13:20:43;4.90;;;3.53;;
66145;SDS011;52948;60.040;30.320;2023-03-24T13:25:52;6.38;;;3.85;;
66145;SDS011;52948;60.040;30.320;2023-03-24T13:31:07;4.40;;;2.58;;
66145;SDS011;52948;60.040;30.320;2023-03-24T13:41:22;3.35;;;2.13;;
66145;SDS011;52948;60.040;30.320;2023-03-24T13:46:28;2.53;;;1.88;;
66145;SDS011;52948;60.040;30.320;2023-03-24T13:51:34;3.00;;;2.20;;
66145;SDS011;52948;60.040;30.320;2023-03-24T13:56:40;4.05;;;1.48;;
66145;SDS011;52948;60.040;30.320;2023-03-24T14:02:15;5.13;;;1.85;;
66145;SDS011;52948;60.040;30.320;2023-03-24T14:12:32;2.80;;;2.25;;
66145;SDS011;52948;60.040;30.320;2023-03-24T14:17:53;6.63;;;2.33;;
66145;SDS011;52948;60.040;30.320;2023-03-24T14:22:57;6.07;;;2.10;;
66145;SDS011;52948;60.040;30.320;2023-03-24T14:28:07;5.80;;;2.38;;
66145;SDS011;52948;60.040;30.320;2023-03-24T14:33:25;3.65;;;2.05;;
66145;SDS011;52948;60.040;30.320;2023-03-24T14:38:27;4.03;;;1.80;;
66145;SDS011;52948;60.040;30.320;2023-03-24T14:43:51;4.38;;;2.03;;
66145;SDS011;52948;60.040;30.320;2023-03-24T14:48:57;5.47;;;2.33;;
66145;SDS011;52948;60.040;30.320;2023-03-24T14:54:06;3.53;;;1.77;;
66145;SDS011;52948;60.040;30.320;2023-03-24T14:59:40;4.82;;;1.92;;
66145;SDS011;52948;60.040;30.320;2023-03-24T15:10:26;4.13;;;2.40;;
66145;SDS011;52948;60.040;30.320;2023-03-24T15:15:34;5.70;;;2.40;;
66145;SDS011;52948;60.040;30.320;2023-03-24T15:20:36;4.10;;;2.13;;
66145;SDS011;52948;60.040;30.320;2023-03-24T15:25:39;3.63;;;2.47;;
66145;SDS011;52948;60.040;30.320;2023-03-24T15:30:42;3.97;;;2.72;;
66145;SDS011;52948;60.040;30.320;2023-03-24T15:35:44;3.80;;;2.55;;
66145;SDS011;52948;60.040;30.320;2023-03-24T15:40:51;3.85;;;2.53;;
66145;SDS011;52948;60.040;30.320;2023-03-24T15:46:01;3.60;;;2.90;;
66145;SDS011;52948;60.040;30.320;2023-03-24T15:51:06;4.85;;;2.30;;
66145;SDS011;52948;60.040;30.320;2023-03-24T16:01:21;4.67;;;2.50;;
66145;SDS011;52948;60.040;30.320;2023-03-24T16:06:28;5.88;;;2.65;;
66145;SDS011;52948;60.040;30.320;2023-03-24T16:11:35;4.65;;;2.53;;
66145;SDS011;52948;60.040;30.320;2023-03-24T16:16:37;3.63;;;2.17;;
66145;SDS011;52948;60.040;30.320;2023-03-24T16:21:40;3.47;;;2.10;;
66145;SDS011;52948;60.040;30.320;2023-03-24T16:26:42;4.63;;;1.90;;
66145;SDS011;52948;60.040;30.320;2023-03-24T16:31:45;2.95;;;2.10;;
66145;SDS011;52948;60.040;30.320;2023-03-24T16:36:51;6.05;;;2.25;;
66145;SDS011;52948;60.040;30.320;2023-03-24T16:41:55;5.05;;;2.38;;
66145;SDS011;52948;60.040;30.320;2023-03-24T16:46:57;4.50;;;2.00;;
66145;SDS011;52948;60.040;30.320;2023-03-24T16:51:59;6.50;;;2.20;;
66145;SDS011;52948;60.040;30.320;2023-03-24T16:57:01;3.35;;;1.70;;
66145;SDS011;52948;60.040;30.320;2023-03-24T17:02:04;3.60;;;2.00;;
66145;SDS011;52948;60.040;30.320;2023-03-24T17:07:06;2.60;;;1.30;;
66145;SDS011;52948;60.040;30.320;2023-03-24T17:12:09;4.28;;;1.67;;
66145;SDS011;52948;60.040;30.320;2023-03-24T17:17:11;8.35;;;1.92;;
66145;SDS011;52948;60.040;30.320;2023-03-24T17:22:13;5.00;;;1.73;;
66145;SDS011;52948;60.040;30.320;2023-03-24T17:27:18;5.13;;;1.52;;
66145;SDS011;52948;60.040;30.320;2023-03-24T17:32:26;4.68;;;1.70;;
66145;SDS011;52948;60.040;30.320;2023-03-24T17:37:33;4.97;;;2.17;;
66145;SDS011;52948;60.040;30.320;2023-03-24T17:42:36;4.32;;;1.90;;
66145;SDS011;52948;60.040;30.320;2023-03-24T17:47:39;4.43;;;1.58;;
66145;SDS011;52948;60.040;30.320;2023-03-24T17:52:43;5.38;;;1.85;;
66145;SDS011;52948;60.040;30.320;2023-03-24T17:57:47;5.40;;;2.20;;
66145;SDS011;52948;60.040;30.320;2023-03-24T18:02:49;9.23;;;2.55;;
66145;SDS011;52948;60.040;30.320;2023-03-24T18:07:51;7.47;;;2.42;;
66145;SDS011;52948;60.040;30.320;2023-03-24T18:12:53;7.10;;;1.70;;
66145;SDS011;52948;60.040;30.320;2023-03-24T18:17:55;4.35;;;2.03;;
66145;SDS011;52948;60.040;30.320;2023-03-24T18:22:58;7.28;;;2.35;;
66145;SDS011;52948;60.040;30.320;2023-03-24T18:28:00;5.07;;;2.20;;
66145;SDS011;52948;60.040;30.320;2023-03-24T18:33:02;2.92;;;1.83;;
66145;SDS011;52948;60.040;30.320;2023-03-24T18:38:05;8.07;;;2.10;;
66145;SDS011;52948;60.040;30.320;2023-03-24T18:43:08;3.95;;;1.63;;
66145;SDS011;52948;60.040;30.320;2023-03-24T18:48:10;5.55;;;2.38;;
66145;SDS011;52948;60.040;30.320;2023-03-24T18:53:14;5.85;;;2.13;;
66145;SDS011;52948;60.040;30.320;2023-03-24T18:58:16;6.03;;;2.30;;
66145;SDS011;52948;60.040;30.320;2023-03-24T19:03:19;9.07;;;2.70;;
66145;SDS011;52948;60.040;30.320;2023-03-24T19:08:22;6.70;;;2.30;;
66145;SDS011;52948;60.040;30.320;2023-03-24T19:13:25;8.40;;;2.33;;
66145;SDS011;52948;60.040;30.320;2023-03-24T19:18:27;4.57;;;1.60;;
66145;SDS011;52948;60.040;30.320;2023-03-24T19:23:29;8.45;;;2.03;;
66145;SDS011;52948;60.040;30.320;2023-03-24T19:28:31;4.47;;;2.08;;
66145;SDS011;52948;60.040;30.320;2023-03-24T19:33:34;3.75;;;1.98;;
66145;SDS011;52948;60.040;30.320;2023-03-24T19:38:38;6.82;;;2.08;;
66145;SDS011;52948;60.040;30.320;2023-03-24T19:43:40;4.25;;;1.67;;
66145;SDS011;52948;60.040;30.320;2023-03-24T19:48:42;6.47;;;1.83;;
66145;SDS011;52948;60.040;30.320;2023-03-24T19:53:45;4.32;;;1.77;;
66145;SDS011;52948;60.040;30.320;2023-03-24T19:58:47;6.15;;;1.65;;
66145;SDS011;52948;60.040;30.320;2023-03-24T20:03:49;4.25;;;1.80;;
66145;SDS011;52948;60.040;30.320;2023-03-24T20:08:52;4.72;;;1.77;;
66145;SDS011;52948;60.040;30.320;2023-03-24T20:13:54;4.40;;;1.45;;
66145;SDS011;52948;60.040;30.320;2023-03-24T20:18:56;4.15;;;1.50;;
66145;SDS011;52948;60.040;30.320;2023-03-24T20:23:59;4.68;;;1.70;;
66145;SDS011;52948;60.040;30.320;2023-03-24T20:29:01;6.93;;;2.03;;
66145;SDS011;52948;60.040;30.320;2023-03-24T20:34:05;4.97;;;1.85;;
66145;SDS011;52948;60.040;30.320;2023-03-24T20:39:08;3.15;;;1.42;;
66145;SDS011;52948;60.040;30.320;2023-03-24T20:44:10;4.95;;;1.85;;
66145;SDS011;52948;60.040;30.320;2023-03-24T20:49:12;4.55;;;1.92;;
66145;SDS011;52948;60.040;30.320;2023-03-24T20:54:17;7.65;;;1.83;;
66145;SDS011;52948;60.040;30.320;2023-03-24T20:59:20;3.08;;;1.90;;
66145;SDS011;52948;60.040;30.320;2023-03-24T21:04:23;5.78;;;1.70;;
66145;SDS011;52948;60.040;30.320;2023-03-24T21:09:25;4.47;;;1.50;;
66145;SDS011;52948;60.040;30.320;2023-03-24T21:14:28;6.60;;;2.60;;
66145;SDS011;52948;60.040;30.320;2023-03-24T21:19:30;2.63;;;1.38;;
66145;SDS011;52948;60.040;30.320;2023-03-24T21:24:33;4.43;;;1.58;;
66145;SDS011;52948;60.040;30.320;2023-03-24T21:29:37;3.17;;;1.42;;
66145;SDS011;52948;60.040;30.320;2023-03-24T21:34:40;3.85;;;1.63;;
66145;SDS011;52948;60.040;30.320;2023-03-24T21:39:43;5.03;;;1.67;;
66145;SDS011;52948;60.040;30.320;2023-03-24T21:44:45;4.28;;;1.70;;
66145;SDS011;52948;60.040;30.320;2023-03-24T21:49:48;5.22;;;1.90;;
66145;SDS011;52948;60.040;30.320;2023-03-24T21:54:50;5.45;;;1.92;;
66145;SDS011;52948;60.040;30.320;2023-03-24T21:59:59;4.60;;;1.88;;
66145;SDS011;52948;60.040;30.320;2023-03-24T22:05:13;8.57;;;1.92;;
66145;SDS011;52948;60.040;30.320;2023-03-24T22:10:17;5.53;;;1.85;;
66145;SDS011;52948;60.040;30.320;2023-03-24T22:15:23;4.63;;;2.25;;
66145;SDS011;52948;60.040;30.320;2023-03-24T22:20:26;7.07;;;1.83;;
66145;SDS011;52948;60.040;30.320;2023-03-24T22:25:33;6.17;;;2.53;;
66145;SDS011;52948;60.040;30.320;2023-03-24T22:30:35;5.63;;;2.83;;
66145;SDS011;52948;60.040;30.320;2023-03-24T22:35:38;5.43;;;2.30;;
66145;SDS011;52948;60.040;30.320;2023-03-24T22:40:40;5.95;;;1.90;;
66145;SDS011;52948;60.040;30.320;2023-03-24T22:45:44;5.10;;;2.22;;
66145;SDS011;52948;60.040;30.320;2023-03-24T22:50:46;3.20;;;1.70;;
66145;SDS011;52948;60.040;30.320;2023-03-24T22:55:49;2.53;;;1.30;;
66145;SDS011;52948;60.040;30.320;2023-03-24T23:00:53;6.13;;;1.90;;
66145;SDS011;52948;60.040;30.320;2023-03-24T23:05:57;3.67;;;2.03;;
66145;SDS011;52948;60.040;30.320;2023-03-24T23:11:05;5.63;;;2.30;;
66145;SDS011;52948;60.040;30.320;2023-03-24T23:16:07;6.90;;;2.10;;
66145;SDS011;52948;60.040;30.320;2023-03-24T23:21:11;5.15;;;2.45;;
66145;SDS011;52948;60.040;30.320;2023-03-24T23:26:15;4.82;;;2.30;;
66145;SDS011;52948;60.040;30.320;2023-03-24T23:31:19;3.45;;;2.15;;
66145;SDS011;52948;60.040;30.320;2023-03-24T23:36:23;3.10;;;1.65;;
66145;SDS011;52948;60.040;30.320;2023-03-24T23:41:27;5.88;;;2.22;;
66145;SDS011;52948;60.040;30.320;2023-03-24T23:46:29;3.42;;;1.67;;
66145;SDS011;52948;60.040;30.320;2023-03-24T23:51:32;3.35;;;1.92;;
66145;SDS011;52948;60.040;30.320;2023-03-24T23:56:34;2.88;;;1.63;;
